Descanso, CA

10:31 PM PST on January 30, 2015 (GMT -0800)
APRSWXNET Descanso CA US | Change Station
CLOSE
Current Station
Personal Weather Station
Location: Descanso, CA
Elevation: 3329 ft
Nearby Weather Stations

Elev 3329 ft 32.91 °N, 116.62 °W | Updated 28 minutes ago

Overcast
Overcast
48 °F
Feels Like 48 °F
N
0
Wind Variable Wind from WNW
Gusts 0.0 mph

Today
High -- | Low -- °F
--% Chance of Precip.
Yesterday
High -- | Low -- °F
Precip. -- in
6:43 AM 5:16 PM
Waxing Gibbous, 88% visible
Pressure 29.82 in
Visibility -9999.0 miles
Clouds
Windchill 48 °F
Dew Point 46 °F
Humidity 94%
Rainfall 0.03 in
Snow Depth Not available.
UV Not available.
Pollen 1.60 out of 12
Air Quality Not available.
Flu Activity Not available.
METAR KCZZ 310552Z AUTO 00000KT 09/08 A2986 RMK AO1 SLP096 T00890078 10111 20083 51003

More Conditions Fewer Conditions

Pressure 29.82 in
Visibility -9999.0 miles
Clouds
Windchill 48 °F
Dew Point 46 °F
Humidity 94%
Rainfall 0.03 in
Snow Depth Not available.
UV Not available.
Pollen 1.60 out of 12
Air Quality Not available.
Flu Activity Not available.
METAR KCZZ 310552Z AUTO 00000KT 09/08 A2986 RMK AO1 SLP096 T00890078 10111 20083 51003

More Conditions Fewer Conditions

10-Day Weather Forecast

Almanac

Astronomy

Jan. 30, 2015 Rise Set
Actual Time
Civil Twilight
Nautical Twilight
Astronomical Twilight
Moon
Length of Visible Light
Length of Day
Tomorrow will be .
, % of the Moon is Illuminated

Today's Extremes

State Highs State Lows

Community

WunderPhotos

Upload Photos

1,792,014 photos uploaded!

WunderBlogs® & News

Nearby

Air Quality

  Air Quality AQ Index Pollutant
Not available.

Snow Depth

Station Depth Elevation

Earthquake Activity

City Distance Mag. Time & Date
Minimum magnitude displayed is 2.5.

Coastal Water Temperatures

Place Temperature

Nearby Weather Stations